sensor_id;sensor_type;location;lat;lon;timestamp;temperature;humidity
19928;DHT22;10126;50.876;4.470;2023-02-20T00:01:46;6.90;99.90
19928;DHT22;10126;50.876;4.470;2023-02-20T00:03:47;7.00;99.90
19928;DHT22;10126;50.876;4.470;2023-02-20T00:05:48;7.00;99.90
19928;DHT22;10126;50.876;4.470;2023-02-20T00:07:48;7.10;99.90
19928;DHT22;10126;50.876;4.470;2023-02-20T00:09:49;7.10;99.90
19928;DHT22;10126;50.876;4.470;2023-02-20T00:11:50;7.10;99.90
19928;DHT22;10126;50.876;4.470;2023-02-20T00:13:50;7.00;99.90
19928;DHT22;10126;50.876;4.470;2023-02-20T00:15:51;7.00;99.90
19928;DHT22;10126;50.876;4.470;2023-02-20T00:17:52;7.00;99.90
19928;DHT22;10126;50.876;4.470;2023-02-20T00:19:53;6.90;99.90
19928;DHT22;10126;50.876;4.470;2023-02-20T00:21:54;6.90;99.90
19928;DHT22;10126;50.876;4.470;2023-02-20T00:23:54;6.90;99.90
19928;DHT22;10126;50.876;4.470;2023-02-20T00:25:55;7.00;99.90
19928;DHT22;10126;50.876;4.470;2023-02-20T00:27:56;6.90;99.90
19928;DHT22;10126;50.876;4.470;2023-02-20T00:29:56;6.90;99.90
19928;DHT22;10126;50.876;4.470;2023-02-20T00:31:57;6.90;99.90
19928;DHT22;10126;50.876;4.470;2023-02-20T00:33:58;7.00;99.90
19928;DHT22;10126;50.876;4.470;2023-02-20T00:35:58;7.00;99.90
19928;DHT22;10126;50.876;4.470;2023-02-20T00:37:59;7.00;99.90
19928;DHT22;10126;50.876;4.470;2023-02-20T00:40:00;7.10;99.90
19928;DHT22;10126;50.876;4.470;2023-02-20T00:42:01;7.10;99.90
19928;DHT22;10126;50.876;4.470;2023-02-20T00:44:01;7.00;99.90
19928;DHT22;10126;50.876;4.470;2023-02-20T00:46:02;7.00;99.90
19928;DHT22;10126;50.876;4.470;2023-02-20T00:48:03;6.90;99.90
19928;DHT22;10126;50.876;4.470;2023-02-20T00:50:05;6.90;99.90
19928;DHT22;10126;50.876;4.470;2023-02-20T00:52:06;7.00;99.90
19928;DHT22;10126;50.876;4.470;2023-02-20T00:54:07;6.80;99.90
19928;DHT22;10126;50.876;4.470;2023-02-20T00:56:07;6.80;99.90
19928;DHT22;10126;50.876;4.470;2023-02-20T00:58:08;6.80;99.90
19928;DHT22;10126;50.876;4.470;2023-02-20T01:00:16;6.70;99.90
19928;DHT22;10126;50.876;4.470;2023-02-20T01:02:17;6.80;99.90
19928;DHT22;10126;50.876;4.470;2023-02-20T01:04:18;6.70;99.90
19928;DHT22;10126;50.876;4.470;2023-02-20T01:06:19;6.70;99.90
19928;DHT22;10126;50.876;4.470;2023-02-20T01:08:19;6.60;99.90
19928;DHT22;10126;50.876;4.470;2023-02-20T01:10:20;6.70;99.90
19928;DHT22;10126;50.876;4.470;2023-02-20T01:12:21;6.60;99.90
19928;DHT22;10126;50.876;4.470;2023-02-20T01:14:22;6.70;99.90
19928;DHT22;10126;50.876;4.470;2023-02-20T01:16:22;6.60;99.90
19928;DHT22;10126;50.876;4.470;2023-02-20T01:18:23;6.60;99.90
19928;DHT22;10126;50.876;4.470;2023-02-20T01:20:24;6.50;99.90
19928;DHT22;10126;50.876;4.470;2023-02-20T01:22:24;6.50;99.90
19928;DHT22;10126;50.876;4.470;2023-02-20T01:24:25;6.50;99.90
19928;DHT22;10126;50.876;4.470;2023-02-20T01:26:25;6.40;99.90
19928;DHT22;10126;50.876;4.470;2023-02-20T01:28:26;6.40;99.90
19928;DHT22;10126;50.876;4.470;2023-02-20T01:30:27;6.50;99.90
19928;DHT22;10126;50.876;4.470;2023-02-20T01:32:27;6.40;99.90
19928;DHT22;10126;50.876;4.470;2023-02-20T01:34:28;6.40;99.90
19928;DHT22;10126;50.876;4.470;2023-02-20T01:36:28;6.50;99.90
19928;DHT22;10126;50.876;4.470;2023-02-20T01:38:29;6.50;99.90
19928;DHT22;10126;50.876;4.470;2023-02-20T01:40:30;6.50;99.90
19928;DHT22;10126;50.876;4.470;2023-02-20T01:42:31;6.50;99.90
19928;DHT22;10126;50.876;4.470;2023-02-20T01:44:35;6.60;99.90
19928;DHT22;10126;50.876;4.470;2023-02-20T01:48:39;6.50;99.90
19928;DHT22;10126;50.876;4.470;2023-02-20T01:50:41;6.50;99.90
19928;DHT22;10126;50.876;4.470;2023-02-20T01:52:44;6.60;99.90
19928;DHT22;10126;50.876;4.470;2023-02-20T01:54:56;6.60;99.90
19928;DHT22;10126;50.876;4.470;2023-02-20T01:57:00;6.60;99.90
19928;DHT22;10126;50.876;4.470;2023-02-20T01:59:02;6.60;99.90
19928;DHT22;10126;50.876;4.470;2023-02-20T02:01:05;6.70;99.90
19928;DHT22;10126;50.876;4.470;2023-02-20T02:05:09;6.70;99.90
19928;DHT22;10126;50.876;4.470;2023-02-20T02:07:11;6.80;99.90
19928;DHT22;10126;50.876;4.470;2023-02-20T02:09:35;6.80;99.90
19928;DHT22;10126;50.876;4.470;2023-02-20T02:11:38;6.90;99.90
19928;DHT22;10126;50.876;4.470;2023-02-20T02:13:38;6.90;99.90
19928;DHT22;10126;50.876;4.470;2023-02-20T02:15:39;6.90;99.90
19928;DHT22;10126;50.876;4.470;2023-02-20T02:18:12;7.10;99.90
19928;DHT22;10126;50.876;4.470;2023-02-20T02:20:34;7.00;99.90
19928;DHT22;10126;50.876;4.470;2023-02-20T02:32:42;7.10;99.90
19928;DHT22;10126;50.876;4.470;2023-02-20T02:35:17;7.10;99.90
19928;DHT22;10126;50.876;4.470;2023-02-20T02:39:47;7.10;99.90
19928;DHT22;10126;50.876;4.470;2023-02-20T02:44:06;7.20;99.90
19928;DHT22;10126;50.876;4.470;2023-02-20T02:46:34;7.10;99.90
19928;DHT22;10126;50.876;4.470;2023-02-20T02:48:49;7.20;99.90
19928;DHT22;10126;50.876;4.470;2023-02-20T02:50:55;7.30;99.90
19928;DHT22;10126;50.876;4.470;2023-02-20T02:52:56;7.30;99.90
19928;DHT22;10126;50.876;4.470;2023-02-20T02:54:57;7.40;99.90
19928;DHT22;10126;50.876;4.470;2023-02-20T02:57:18;7.40;99.90
19928;DHT22;10126;50.876;4.470;2023-02-20T02:59:31;7.40;99.90
19928;DHT22;10126;50.876;4.470;2023-02-20T03:01:36;7.40;99.90
19928;DHT22;10126;50.876;4.470;2023-02-20T03:03:42;7.40;99.90
19928;DHT22;10126;50.876;4.470;2023-02-20T03:06:14;7.40;99.90
19928;DHT22;10126;50.876;4.470;2023-02-20T03:08:50;7.40;99.90
19928;DHT22;10126;50.876;4.470;2023-02-20T03:10:52;7.30;99.90
19928;DHT22;10126;50.876;4.470;2023-02-20T03:12:54;7.10;99.90
19928;DHT22;10126;50.876;4.470;2023-02-20T03:14:58;7.20;99.90
19928;DHT22;10126;50.876;4.470;2023-02-20T03:17:29;7.20;99.90
19928;DHT22;10126;50.876;4.470;2023-02-20T03:19:36;7.20;99.90
19928;DHT22;10126;50.876;4.470;2023-02-20T03:21:42;7.00;99.90
19928;DHT22;10126;50.876;4.470;2023-02-20T03:23:50;7.10;99.90
19928;DHT22;10126;50.876;4.470;2023-02-20T03:26:02;7.20;99.90
19928;DHT22;10126;50.876;4.470;2023-02-20T03:28:10;7.30;99.90
19928;DHT22;10126;50.876;4.470;2023-02-20T03:32:20;7.30;99.90
19928;DHT22;10126;50.876;4.470;2023-02-20T03:34:43;7.40;99.90
19928;DHT22;10126;50.876;4.470;2023-02-20T03:37:11;7.40;99.90
19928;DHT22;10126;50.876;4.470;2023-02-20T03:39:37;7.40;99.90
19928;DHT22;10126;50.876;4.470;2023-02-20T03:41:58;7.40;99.90
19928;DHT22;10126;50.876;4.470;2023-02-20T03:44:19;7.50;99.90
19928;DHT22;10126;50.876;4.470;2023-02-20T03:46:22;7.50;99.90
19928;DHT22;10126;50.876;4.470;2023-02-20T03:50:45;7.50;99.90
19928;DHT22;10126;50.876;4.470;2023-02-20T03:52:46;7.60;99.90
19928;DHT22;10126;50.876;4.470;2023-02-20T03:54:47;7.50;99.90
19928;DHT22;10126;50.876;4.470;2023-02-20T03:56:50;7.50;99.90
19928;DHT22;10126;50.876;4.470;2023-02-20T03:59:15;7.40;99.90
19928;DHT22;10126;50.876;4.470;2023-02-20T04:01:19;7.40;99.90
19928;DHT22;10126;50.876;4.470;2023-02-20T04:03:22;7.40;99.90
19928;DHT22;10126;50.876;4.470;2023-02-20T04:05:27;7.40;99.90
19928;DHT22;10126;50.876;4.470;2023-02-20T04:07:38;7.50;99.90
19928;DHT22;10126;50.876;4.470;2023-02-20T04:09:44;7.50;99.90
19928;DHT22;10126;50.876;4.470;2023-02-20T04:11:52;7.60;99.90
19928;DHT22;10126;50.876;4.470;2023-02-20T04:13:55;7.60;99.90
19928;DHT22;10126;50.876;4.470;2023-02-20T04:16:00;7.60;99.90
19928;DHT22;10126;50.876;4.470;2023-02-20T04:18:08;7.60;99.90
19928;DHT22;10126;50.876;4.470;2023-02-20T04:20:10;7.60;99.90
19928;DHT22;10126;50.876;4.470;2023-02-20T04:22:18;7.60;99.90
19928;DHT22;10126;50.876;4.470;2023-02-20T04:24:39;7.50;99.90
19928;DHT22;10126;50.876;4.470;2023-02-20T04:26:41;7.60;99.90
19928;DHT22;10126;50.876;4.470;2023-02-20T04:28:42;7.60;99.90
19928;DHT22;10126;50.876;4.470;2023-02-20T04:30:43;7.60;99.90
19928;DHT22;10126;50.876;4.470;2023-02-20T04:32:44;7.70;99.90
19928;DHT22;10126;50.876;4.470;2023-02-20T04:34:45;7.70;99.90
19928;DHT22;10126;50.876;4.470;2023-02-20T04:36:45;7.70;99.90
19928;DHT22;10126;50.876;4.470;2023-02-20T04:38:46;7.60;99.90
19928;DHT22;10126;50.876;4.470;2023-02-20T04:40:47;7.60;99.90
19928;DHT22;10126;50.876;4.470;2023-02-20T04:42:47;7.60;99.90
19928;DHT22;10126;50.876;4.470;2023-02-20T04:44:48;7.60;99.90
19928;DHT22;10126;50.876;4.470;2023-02-20T04:46:49;7.60;99.90
19928;DHT22;10126;50.876;4.470;2023-02-20T04:48:49;7.70;99.90
19928;DHT22;10126;50.876;4.470;2023-02-20T04:50:50;7.80;99.90
19928;DHT22;10126;50.876;4.470;2023-02-20T04:52:50;7.70;99.90
19928;DHT22;10126;50.876;4.470;2023-02-20T04:54:51;7.70;99.90
19928;DHT22;10126;50.876;4.470;2023-02-20T04:56:52;7.70;99.90
19928;DHT22;10126;50.876;4.470;2023-02-20T04:58:53;7.70;99.90
19928;DHT22;10126;50.876;4.470;2023-02-20T05:00:53;7.70;99.90
19928;DHT22;10126;50.876;4.470;2023-02-20T05:02:54;7.80;99.90
19928;DHT22;10126;50.876;4.470;2023-02-20T05:04:55;7.70;99.90
19928;DHT22;10126;50.876;4.470;2023-02-20T05:06:56;7.70;99.90
19928;DHT22;10126;50.876;4.470;2023-02-20T05:08:57;7.80;99.90
19928;DHT22;10126;50.876;4.470;2023-02-20T05:10:58;7.80;99.90
19928;DHT22;10126;50.876;4.470;2023-02-20T05:12:59;7.70;99.90
19928;DHT22;10126;50.876;4.470;2023-02-20T05:15:00;7.70;99.90
19928;DHT22;10126;50.876;4.470;2023-02-20T05:17:01;7.80;99.90
19928;DHT22;10126;50.876;4.470;2023-02-20T05:19:01;7.80;99.90
19928;DHT22;10126;50.876;4.470;2023-02-20T05:21:02;7.80;99.90
19928;DHT22;10126;50.876;4.470;2023-02-20T05:23:21;7.80;99.90
19928;DHT22;10126;50.876;4.470;2023-02-20T05:25:21;7.70;99.90
19928;DHT22;10126;50.876;4.470;2023-02-20T05:27:23;7.70;99.90
19928;DHT22;10126;50.876;4.470;2023-02-20T05:29:24;7.80;99.90
19928;DHT22;10126;50.876;4.470;2023-02-20T05:31:25;7.80;99.90
19928;DHT22;10126;50.876;4.470;2023-02-20T05:33:25;7.80;99.90
19928;DHT22;10126;50.876;4.470;2023-02-20T05:35:26;7.80;99.90
19928;DHT22;10126;50.876;4.470;2023-02-20T05:37:27;7.90;99.90
19928;DHT22;10126;50.876;4.470;2023-02-20T05:39:27;7.80;99.90
19928;DHT22;10126;50.876;4.470;2023-02-20T05:41:28;7.80;99.90
19928;DHT22;10126;50.876;4.470;2023-02-20T05:43:29;7.80;99.90
19928;DHT22;10126;50.876;4.470;2023-02-20T05:45:29;7.80;99.90
19928;DHT22;10126;50.876;4.470;2023-02-20T05:47:30;7.80;99.90
19928;DHT22;10126;50.876;4.470;2023-02-20T05:49:31;7.90;99.90
19928;DHT22;10126;50.876;4.470;2023-02-20T05:51:31;7.80;99.90
19928;DHT22;10126;50.876;4.470;2023-02-20T05:53:32;7.90;99.90
19928;DHT22;10126;50.876;4.470;2023-02-20T05:55:33;7.90;99.90
19928;DHT22;10126;50.876;4.470;2023-02-20T05:57:34;7.90;99.90
19928;DHT22;10126;50.876;4.470;2023-02-20T05:59:34;7.90;99.90
19928;DHT22;10126;50.876;4.470;2023-02-20T06:01:35;7.90;99.90
19928;DHT22;10126;50.876;4.470;2023-02-20T06:03:36;7.80;99.90
19928;DHT22;10126;50.876;4.470;2023-02-20T06:05:36;7.90;99.90
19928;DHT22;10126;50.876;4.470;2023-02-20T06:07:37;7.90;99.90
19928;DHT22;10126;50.876;4.470;2023-02-20T06:09:42;7.90;99.90
19928;DHT22;10126;50.876;4.470;2023-02-20T06:11:50;8.00;99.90
19928;DHT22;10126;50.876;4.470;2023-02-20T06:13:51;7.80;99.90
19928;DHT22;10126;50.876;4.470;2023-02-20T06:15:52;7.80;99.90
19928;DHT22;10126;50.876;4.470;2023-02-20T06:17:53;7.80;99.90
19928;DHT22;10126;50.876;4.470;2023-02-20T06:19:53;7.80;99.90
19928;DHT22;10126;50.876;4.470;2023-02-20T06:21:54;7.70;99.90
19928;DHT22;10126;50.876;4.470;2023-02-20T06:23:57;7.60;99.90
19928;DHT22;10126;50.876;4.470;2023-02-20T06:25:58;7.70;99.90
19928;DHT22;10126;50.876;4.470;2023-02-20T06:27:59;7.80;99.90
19928;DHT22;10126;50.876;4.470;2023-02-20T06:29:59;7.80;99.90
19928;DHT22;10126;50.876;4.470;2023-02-20T06:32:00;7.80;99.90
19928;DHT22;10126;50.876;4.470;2023-02-20T06:34:01;7.90;99.90
19928;DHT22;10126;50.876;4.470;2023-02-20T06:36:02;7.80;99.90
19928;DHT22;10126;50.876;4.470;2023-02-20T06:38:03;7.80;99.90
19928;DHT22;10126;50.876;4.470;2023-02-20T06:40:04;7.80;99.90
19928;DHT22;10126;50.876;4.470;2023-02-20T06:42:05;7.80;99.90
19928;DHT22;10126;50.876;4.470;2023-02-20T06:44:07;7.90;99.90
19928;DHT22;10126;50.876;4.470;2023-02-20T06:46:07;7.80;99.90
19928;DHT22;10126;50.876;4.470;2023-02-20T06:48:08;7.80;99.90
19928;DHT22;10126;50.876;4.470;2023-02-20T06:50:09;7.80;99.90
19928;DHT22;10126;50.876;4.470;2023-02-20T06:52:10;7.80;99.90
19928;DHT22;10126;50.876;4.470;2023-02-20T06:54:11;7.80;99.90
19928;DHT22;10126;50.876;4.470;2023-02-20T06:56:21;7.80;99.90
19928;DHT22;10126;50.876;4.470;2023-02-20T06:58:21;7.90;99.90
19928;DHT22;10126;50.876;4.470;2023-02-20T07:00:22;7.80;99.90
19928;DHT22;10126;50.876;4.470;2023-02-20T07:02:23;7.80;99.90
19928;DHT22;10126;50.876;4.470;2023-02-20T07:04:25;7.90;99.90
19928;DHT22;10126;50.876;4.470;2023-02-20T07:06:25;7.90;99.90
19928;DHT22;10126;50.876;4.470;2023-02-20T07:08:26;8.00;99.90
19928;DHT22;10126;50.876;4.470;2023-02-20T07:10:27;7.90;99.90
19928;DHT22;10126;50.876;4.470;2023-02-20T07:12:29;7.90;99.90
19928;DHT22;10126;50.876;4.470;2023-02-20T07:14:30;7.90;99.90
19928;DHT22;10126;50.876;4.470;2023-02-20T07:16:31;8.00;99.90
19928;DHT22;10126;50.876;4.470;2023-02-20T07:18:31;8.10;99.90
19928;DHT22;10126;50.876;4.470;2023-02-20T07:20:32;8.00;99.90
19928;DHT22;10126;50.876;4.470;2023-02-20T07:22:33;8.10;99.90
19928;DHT22;10126;50.876;4.470;2023-02-20T07:24:34;8.10;99.90
19928;DHT22;10126;50.876;4.470;2023-02-20T07:26:36;8.20;99.90
19928;DHT22;10126;50.876;4.470;2023-02-20T07:28:38;8.30;99.90
19928;DHT22;10126;50.876;4.470;2023-02-20T07:30:39;8.30;99.90
19928;DHT22;10126;50.876;4.470;2023-02-20T07:32:40;8.20;99.90
19928;DHT22;10126;50.876;4.470;2023-02-20T07:34:41;8.20;99.90
19928;DHT22;10126;50.876;4.470;2023-02-20T07:36:41;8.20;99.90
19928;DHT22;10126;50.876;4.470;2023-02-20T07:38:42;8.10;99.90
19928;DHT22;10126;50.876;4.470;2023-02-20T07:40:43;8.00;99.90
19928;DHT22;10126;50.876;4.470;2023-02-20T07:42:44;8.00;99.90
19928;DHT22;10126;50.876;4.470;2023-02-20T07:44:44;8.10;99.90
19928;DHT22;10126;50.876;4.470;2023-02-20T07:46:48;8.20;99.90
19928;DHT22;10126;50.876;4.470;2023-02-20T07:48:49;8.30;99.90
19928;DHT22;10126;50.876;4.470;2023-02-20T07:50:50;8.30;99.90
19928;DHT22;10126;50.876;4.470;2023-02-20T07:52:52;8.30;99.90
19928;DHT22;10126;50.876;4.470;2023-02-20T07:54:52;8.30;99.90
19928;DHT22;10126;50.876;4.470;2023-02-20T07:56:54;8.30;99.90
19928;DHT22;10126;50.876;4.470;2023-02-20T07:58:54;8.40;99.90
19928;DHT22;10126;50.876;4.470;2023-02-20T08:00:55;8.20;99.90
19928;DHT22;10126;50.876;4.470;2023-02-20T08:02:56;8.20;99.90
19928;DHT22;10126;50.876;4.470;2023-02-20T08:04:58;8.30;99.90
19928;DHT22;10126;50.876;4.470;2023-02-20T08:06:59;8.20;99.90
19928;DHT22;10126;50.876;4.470;2023-02-20T08:09:00;8.30;99.90
19928;DHT22;10126;50.876;4.470;2023-02-20T08:11:01;8.50;99.90
19928;DHT22;10126;50.876;4.470;2023-02-20T08:13:02;8.40;99.90
19928;DHT22;10126;50.876;4.470;2023-02-20T08:15:03;8.40;99.90
19928;DHT22;10126;50.876;4.470;2023-02-20T08:17:04;8.40;99.90
19928;DHT22;10126;50.876;4.470;2023-02-20T08:19:04;8.40;99.90
19928;DHT22;10126;50.876;4.470;2023-02-20T08:21:05;8.40;99.90
19928;DHT22;10126;50.876;4.470;2023-02-20T08:23:16;8.50;99.90
19928;DHT22;10126;50.876;4.470;2023-02-20T08:25:18;8.40;99.90
19928;DHT22;10126;50.876;4.470;2023-02-20T08:27:18;8.40;99.90
19928;DHT22;10126;50.876;4.470;2023-02-20T08:29:19;8.30;99.90
19928;DHT22;10126;50.876;4.470;2023-02-20T08:31:20;8.50;99.90
19928;DHT22;10126;50.876;4.470;2023-02-20T08:33:21;8.60;99.90
19928;DHT22;10126;50.876;4.470;2023-02-20T08:35:22;8.50;99.90
19928;DHT22;10126;50.876;4.470;2023-02-20T08:37:26;8.40;99.90
19928;DHT22;10126;50.876;4.470;2023-02-20T08:39:26;8.40;99.90
19928;DHT22;10126;50.876;4.470;2023-02-20T08:41:27;8.50;99.90
19928;DHT22;10126;50.876;4.470;2023-02-20T08:43:28;8.50;99.90
19928;DHT22;10126;50.876;4.470;2023-02-20T08:45:28;8.60;99.90
19928;DHT22;10126;50.876;4.470;2023-02-20T08:47:29;8.50;99.90
19928;DHT22;10126;50.876;4.470;2023-02-20T08:49:30;8.60;99.90
19928;DHT22;10126;50.876;4.470;2023-02-20T08:51:30;8.60;99.90
19928;DHT22;10126;50.876;4.470;2023-02-20T08:53:32;8.80;99.90
19928;DHT22;10126;50.876;4.470;2023-02-20T08:55:32;8.90;99.90
19928;DHT22;10126;50.876;4.470;2023-02-20T08:57:33;8.80;99.90
19928;DHT22;10126;50.876;4.470;2023-02-20T08:59:33;8.80;99.90
19928;DHT22;10126;50.876;4.470;2023-02-20T09:01:40;8.90;99.90
19928;DHT22;10126;50.876;4.470;2023-02-20T09:03:40;8.80;99.90
19928;DHT22;10126;50.876;4.470;2023-02-20T09:05:43;8.70;99.90
19928;DHT22;10126;50.876;4.470;2023-02-20T09:07:44;8.90;99.90
19928;DHT22;10126;50.876;4.470;2023-02-20T09:09:45;8.80;99.90
19928;DHT22;10126;50.876;4.470;2023-02-20T09:11:45;8.70;99.90
19928;DHT22;10126;50.876;4.470;2023-02-20T09:13:47;8.80;99.90
19928;DHT22;10126;50.876;4.470;2023-02-20T09:15:48;8.90;99.90
19928;DHT22;10126;50.876;4.470;2023-02-20T09:17:50;9.10;99.90
19928;DHT22;10126;50.876;4.470;2023-02-20T09:19:51;9.00;99.90
19928;DHT22;10126;50.876;4.470;2023-02-20T09:21:52;9.00;99.90
19928;DHT22;10126;50.876;4.470;2023-02-20T09:23:52;8.90;99.90
19928;DHT22;10126;50.876;4.470;2023-02-20T09:25:53;8.90;99.90
19928;DHT22;10126;50.876;4.470;2023-02-20T09:27:54;8.90;99.90
19928;DHT22;10126;50.876;4.470;2023-02-20T09:29:55;8.90;99.90
19928;DHT22;10126;50.876;4.470;2023-02-20T09:31:56;9.00;99.90
19928;DHT22;10126;50.876;4.470;2023-02-20T09:33:56;9.00;99.90
19928;DHT22;10126;50.876;4.470;2023-02-20T09:35:57;9.10;99.90
19928;DHT22;10126;50.876;4.470;2023-02-20T09:37:58;9.00;99.90
19928;DHT22;10126;50.876;4.470;2023-02-20T09:39:58;9.00;99.90
19928;DHT22;10126;50.876;4.470;2023-02-20T09:46:47;8.90;99.90
19928;DHT22;10126;50.876;4.470;2023-02-20T09:49:18;9.00;99.90
19928;DHT22;10126;50.876;4.470;2023-02-20T09:51:23;9.00;99.90
19928;DHT22;10126;50.876;4.470;2023-02-20T09:53:29;9.00;99.90
19928;DHT22;10126;50.876;4.470;2023-02-20T09:55:35;9.00;99.90
19928;DHT22;10126;50.876;4.470;2023-02-20T09:57:39;9.00;99.90
19928;DHT22;10126;50.876;4.470;2023-02-20T09:59:52;9.00;99.90
19928;DHT22;10126;50.876;4.470;2023-02-20T10:02:37;9.20;99.90
19928;DHT22;10126;50.876;4.470;2023-02-20T10:04:42;9.30;99.90
19928;DHT22;10126;50.876;4.470;2023-02-20T10:06:45;9.40;99.90
19928;DHT22;10126;50.876;4.470;2023-02-20T10:08:48;9.50;99.90
19928;DHT22;10126;50.876;4.470;2023-02-20T10:10:50;9.40;99.90
19928;DHT22;10126;50.876;4.470;2023-02-20T10:15:37;9.30;99.90
19928;DHT22;10126;50.876;4.470;2023-02-20T10:17:49;9.20;99.90
19928;DHT22;10126;50.876;4.470;2023-02-20T10:22:15;9.30;99.90
19928;DHT22;10126;50.876;4.470;2023-02-20T10:26:48;9.20;99.90
19928;DHT22;10126;50.876;4.470;2023-02-20T10:28:52;9.30;99.90
19928;DHT22;10126;50.876;4.470;2023-02-20T10:31:15;9.30;99.90
19928;DHT22;10126;50.876;4.470;2023-02-20T10:35:44;9.60;99.90
19928;DHT22;10126;50.876;4.470;2023-02-20T10:37:50;9.50;99.90
19928;DHT22;10126;50.876;4.470;2023-02-20T10:40:01;9.50;99.90
19928;DHT22;10126;50.876;4.470;2023-02-20T10:42:26;9.50;99.90
19928;DHT22;10126;50.876;4.470;2023-02-20T10:44:35;9.60;99.90
19928;DHT22;10126;50.876;4.470;2023-02-20T10:46:59;9.60;99.90
19928;DHT22;10126;50.876;4.470;2023-02-20T10:49:06;9.60;99.90
19928;DHT22;10126;50.876;4.470;2023-02-20T10:51:16;9.80;99.90
19928;DHT22;10126;50.876;4.470;2023-02-20T10:53:28;9.90;99.90
19928;DHT22;10126;50.876;4.470;2023-02-20T11:02:16;9.90;99.90
19928;DHT22;10126;50.876;4.470;2023-02-20T11:04:27;9.80;99.90
19928;DHT22;10126;50.876;4.470;2023-02-20T11:06:37;9.80;99.90
19928;DHT22;10126;50.876;4.470;2023-02-20T11:08:39;9.90;99.90
19928;DHT22;10126;50.876;4.470;2023-02-20T11:10:40;10.00;99.90
19928;DHT22;10126;50.876;4.470;2023-02-20T11:12:55;10.00;99.90
19928;DHT22;10126;50.876;4.470;2023-02-20T11:15:04;10.00;99.90
19928;DHT22;10126;50.876;4.470;2023-02-20T11:17:14;10.10;99.90
19928;DHT22;10126;50.876;4.470;2023-02-20T11:19:43;10.10;99.90
19928;DHT22;10126;50.876;4.470;2023-02-20T11:21:46;10.20;99.90
19928;DHT22;10126;50.876;4.470;2023-02-20T11:23:47;10.10;99.90
19928;DHT22;10126;50.876;4.470;2023-02-20T11:25:48;10.00;99.90
19928;DHT22;10126;50.876;4.470;2023-02-20T11:27:54;10.10;99.90
19928;DHT22;10126;50.876;4.470;2023-02-20T11:32:15;10.20;99.90
19928;DHT22;10126;50.876;4.470;2023-02-20T11:34:22;10.00;99.90
19928;DHT22;10126;50.876;4.470;2023-02-20T11:36:25;9.90;99.90
19928;DHT22;10126;50.876;4.470;2023-02-20T11:38:30;9.90;99.90
19928;DHT22;10126;50.876;4.470;2023-02-20T11:40:32;9.80;99.90
19928;DHT22;10126;50.876;4.470;2023-02-20T11:42:35;9.80;99.90
19928;DHT22;10126;50.876;4.470;2023-02-20T11:44:36;9.80;99.90
19928;DHT22;10126;50.876;4.470;2023-02-20T11:46:36;9.90;99.90
19928;DHT22;10126;50.876;4.470;2023-02-20T11:48:37;9.80;99.90
19928;DHT22;10126;50.876;4.470;2023-02-20T11:50:43;9.80;99.90
19928;DHT22;10126;50.876;4.470;2023-02-20T11:52:59;10.00;99.90
19928;DHT22;10126;50.876;4.470;2023-02-20T11:55:19;10.10;99.90
19928;DHT22;10126;50.876;4.470;2023-02-20T11:57:28;10.30;99.90
19928;DHT22;10126;50.876;4.470;2023-02-20T11:59:40;10.40;99.90
19928;DHT22;10126;50.876;4.470;2023-02-20T12:01:41;10.30;99.90
19928;DHT22;10126;50.876;4.470;2023-02-20T12:03:54;10.30;99.90
19928;DHT22;10126;50.876;4.470;2023-02-20T12:05:57;10.20;99.90
19928;DHT22;10126;50.876;4.470;2023-02-20T12:07:59;10.20;99.90
19928;DHT22;10126;50.876;4.470;2023-02-20T12:10:24;10.10;99.90
19928;DHT22;10126;50.876;4.470;2023-02-20T12:12:29;10.10;99.90
19928;DHT22;10126;50.876;4.470;2023-02-20T12:14:31;10.20;99.90
19928;DHT22;10126;50.876;4.470;2023-02-20T12:27:49;10.10;99.90
19928;DHT22;10126;50.876;4.470;2023-02-20T12:30:16;10.20;99.90
19928;DHT22;10126;50.876;4.470;2023-02-20T12:34:29;10.10;99.90
19928;DHT22;10126;50.876;4.470;2023-02-20T12:36:44;10.00;99.90
19928;DHT22;10126;50.876;4.470;2023-02-20T12:38:49;10.20;99.90
19928;DHT22;10126;50.876;4.470;2023-02-20T12:45:51;10.50;99.90
19928;DHT22;10126;50.876;4.470;2023-02-20T12:48:22;10.50;99.90
19928;DHT22;10126;50.876;4.470;2023-02-20T12:50:51;10.40;99.90
19928;DHT22;10126;50.876;4.470;2023-02-20T12:59:57;10.40;99.90
19928;DHT22;10126;50.876;4.470;2023-02-20T13:02:47;10.30;99.90
19928;DHT22;10126;50.876;4.470;2023-02-20T13:04:31;10.20;99.90
19928;DHT22;10126;50.876;4.470;2023-02-20T13:09:03;10.20;99.90
19928;DHT22;10126;50.876;4.470;2023-02-20T13:11:11;10.10;99.90
19928;DHT22;10126;50.876;4.470;2023-02-20T13:13:14;10.10;99.90
19928;DHT22;10126;50.876;4.470;2023-02-20T13:15:39;10.10;99.90
19928;DHT22;10126;50.876;4.470;2023-02-20T13:20:23;10.20;99.90
19928;DHT22;10126;50.876;4.470;2023-02-20T13:22:24;10.20;99.90
19928;DHT22;10126;50.876;4.470;2023-02-20T13:24:29;10.30;99.90
19928;DHT22;10126;50.876;4.470;2023-02-20T13:28:41;10.20;99.90
19928;DHT22;10126;50.876;4.470;2023-02-20T13:30:42;10.20;99.90
19928;DHT22;10126;50.876;4.470;2023-02-20T13:32:42;10.40;99.90
19928;DHT22;10126;50.876;4.470;2023-02-20T13:34:45;10.30;99.90
19928;DHT22;10126;50.876;4.470;2023-02-20T13:36:47;10.20;99.90
19928;DHT22;10126;50.876;4.470;2023-02-20T13:41:26;10.20;99.90
19928;DHT22;10126;50.876;4.470;2023-02-20T13:43:46;10.30;99.90
19928;DHT22;10126;50.876;4.470;2023-02-20T13:48:51;10.40;99.90
19928;DHT22;10126;50.876;4.470;2023-02-20T13:50:44;10.40;99.90
19928;DHT22;10126;50.876;4.470;2023-02-20T13:52:45;10.40;99.90
19928;DHT22;10126;50.876;4.470;2023-02-20T13:54:47;10.40;99.90
19928;DHT22;10126;50.876;4.470;2023-02-20T13:56:59;10.50;99.90
19928;DHT22;10126;50.876;4.470;2023-02-20T13:59:15;10.40;99.90
19928;DHT22;10126;50.876;4.470;2023-02-20T14:01:17;10.30;99.90
19928;DHT22;10126;50.876;4.470;2023-02-20T14:03:24;10.20;99.90
19928;DHT22;10126;50.876;4.470;2023-02-20T14:05:28;10.20;99.90
19928;DHT22;10126;50.876;4.470;2023-02-20T14:07:44;10.10;99.90
19928;DHT22;10126;50.876;4.470;2023-02-20T14:09:45;10.10;99.90
19928;DHT22;10126;50.876;4.470;2023-02-20T14:12:10;10.20;99.90
19928;DHT22;10126;50.876;4.470;2023-02-20T14:14:29;10.30;99.90
19928;DHT22;10126;50.876;4.470;2023-02-20T14:16:35;10.30;99.90
19928;DHT22;10126;50.876;4.470;2023-02-20T14:18:38;10.20;99.90
19928;DHT22;10126;50.876;4.470;2023-02-20T14:20:38;10.30;99.90
19928;DHT22;10126;50.876;4.470;2023-02-20T14:22:39;10.30;99.90
19928;DHT22;10126;50.876;4.470;2023-02-20T14:24:40;10.30;99.90
19928;DHT22;10126;50.876;4.470;2023-02-20T14:26:40;10.30;99.90
19928;DHT22;10126;50.876;4.470;2023-02-20T14:28:44;10.40;99.90
19928;DHT22;10126;50.876;4.470;2023-02-20T14:30:45;10.40;99.90
19928;DHT22;10126;50.876;4.470;2023-02-20T14:32:49;10.50;99.90
19928;DHT22;10126;50.876;4.470;2023-02-20T14:37:33;10.30;99.90
19928;DHT22;10126;50.876;4.470;2023-02-20T14:40:05;10.30;99.90
19928;DHT22;10126;50.876;4.470;2023-02-20T14:42:14;10.20;99.90
19928;DHT22;10126;50.876;4.470;2023-02-20T14:44:15;10.20;99.90
19928;DHT22;10126;50.876;4.470;2023-02-20T14:46:22;10.30;99.90